createdAt,value
2023-02-16T00:00:01.645Z,8.00
2023-02-16T00:01:25.021Z,4.50
2023-02-16T00:02:27.240Z,7.00
2023-02-16T00:03:29.725Z,4.40
2023-02-16T00:04:31.931Z,5.40
2023-02-16T00:05:35.008Z,3.67
2023-02-16T00:06:38.045Z,4.10
2023-02-16T00:07:40.270Z,6.50
2023-02-16T00:08:46.484Z,3.80
2023-02-16T00:09:49.104Z,4.90
2023-02-16T00:11:10.463Z,2.80
2023-02-16T00:12:30.284Z,7.60
2023-02-16T00:13:52.808Z,5.10
2023-02-16T00:14:55.175Z,4.50
2023-02-16T00:15:57.372Z,2.80
2023-02-16T00:17:00.629Z,2.80
2023-02-16T00:18:06.452Z,3.40
2023-02-16T00:19:28.615Z,7.10
2023-02-16T00:20:31.431Z,9.70
2023-02-16T00:21:33.748Z,8.10
2023-02-16T00:22:35.910Z,5.20
2023-02-16T00:23:40.754Z,5.80
2023-02-16T00:24:42.958Z,6.10
2023-02-16T00:25:46.076Z,9.90
2023-02-16T00:26:48.784Z,6.40
2023-02-16T00:27:51.233Z,12.30
2023-02-16T00:28:58.564Z,8.80
2023-02-16T00:30:00.831Z,9.20
2023-02-16T00:31:04.120Z,7.10
2023-02-16T00:32:06.650Z,7.10
2023-02-16T00:34:34.697Z,8.30
2023-02-16T00:35:37.026Z,10.90
2023-02-16T00:36:39.600Z,7.64
2023-02-16T00:37:41.638Z,10.22
2023-02-16T00:38:45.143Z,10.20
2023-02-16T00:39:48.279Z,7.40
2023-02-16T00:40:50.648Z,5.64
2023-02-16T00:41:59.601Z,8.90
2023-02-16T00:43:01.747Z,8.00
2023-02-16T00:44:06.182Z,11.60
2023-02-16T00:46:25.658Z,9.70
2023-02-16T00:47:34.642Z,9.70
2023-02-16T00:48:36.616Z,13.40
2023-02-16T00:49:40.208Z,12.70
2023-02-16T00:50:42.693Z,8.50
2023-02-16T00:51:45.774Z,10.50
2023-02-16T00:52:49.295Z,6.40
2023-02-16T00:53:51.405Z,10.50
2023-02-16T00:54:53.356Z,11.44
2023-02-16T00:55:55.795Z,11.90
2023-02-16T00:56:58.692Z,8.91
2023-02-16T00:58:04.704Z,10.09
2023-02-16T00:59:10.985Z,7.70
2023-02-16T01:00:17.260Z,7.80
2023-02-16T01:01:23.217Z,7.50
2023-02-16T01:02:25.606Z,10.30
2023-02-16T01:03:29.394Z,8.40
2023-02-16T01:04:32.785Z,3.40
2023-02-16T01:05:35.182Z,13.00
2023-02-16T01:06:56.558Z,10.00
2023-02-16T01:08:17.987Z,10.20
2023-02-16T01:09:40.862Z,10.30
2023-02-16T01:11:02.686Z,6.90
2023-02-16T01:12:08.718Z,7.70
2023-02-16T01:13:15.766Z,9.00
2023-02-16T01:14:18.250Z,6.00
2023-02-16T01:15:23.953Z,9.40
2023-02-16T01:16:33.627Z,8.40
2023-02-16T01:17:35.783Z,10.60
2023-02-16T01:18:37.722Z,9.00
2023-02-16T01:19:40.179Z,8.30
2023-02-16T01:20:44.675Z,8.80
2023-02-16T01:21:46.956Z,5.80
2023-02-16T01:22:50.268Z,8.10
2023-02-16T01:23:52.889Z,5.40
2023-02-16T01:24:54.932Z,7.70
2023-02-16T01:25:58.361Z,6.30
2023-02-16T01:27:00.934Z,4.50
2023-02-16T01:28:04.084Z,9.10
2023-02-16T01:29:06.852Z,6.40
2023-02-16T01:30:16.409Z,8.00
2023-02-16T01:31:19.940Z,5.90
2023-02-16T01:32:22.147Z,6.80
2023-02-16T01:33:24.695Z,7.80
2023-02-16T01:34:26.947Z,8.20
2023-02-16T01:35:35.082Z,6.20
2023-02-16T01:36:42.039Z,6.20
2023-02-16T01:37:44.595Z,6.70
2023-02-16T01:38:46.705Z,6.30
2023-02-16T01:39:50.914Z,6.10
2023-02-16T01:41:16.923Z,8.30
2023-02-16T01:42:32.450Z,7.10
2023-02-16T01:43:50.596Z,6.70
2023-02-16T01:44:56.583Z,7.10
2023-02-16T01:46:06.509Z,8.80
2023-02-16T01:47:39.178Z,9.40
2023-02-16T01:48:41.436Z,6.80
2023-02-16T01:49:45.717Z,6.10
2023-02-16T01:50:54.668Z,7.80
2023-02-16T01:52:15.990Z,4.80
2023-02-16T01:53:23.707Z,5.20
2023-02-16T01:54:39.542Z,5.40
2023-02-16T01:55:45.246Z,7.90
2023-02-16T01:56:54.292Z,5.70
2023-02-16T01:58:17.126Z,7.70
2023-02-16T01:59:40.301Z,6.30
2023-02-16T02:00:55.668Z,5.40
2023-02-16T02:02:06.551Z,8.80
2023-02-16T02:03:31.078Z,7.80
2023-02-16T02:05:11.519Z,8.50
2023-02-16T02:07:51.484Z,8.10
2023-02-16T02:10:40.769Z,6.20
2023-02-16T02:11:55.335Z,4.00
2023-02-16T02:13:05.267Z,6.20
2023-02-16T02:14:17.364Z,6.80
2023-02-16T02:15:23.208Z,5.20
2023-02-16T02:16:28.436Z,5.60
2023-02-16T02:17:31.332Z,6.00
2023-02-16T02:18:34.736Z,6.90
2023-02-16T02:19:58.110Z,6.20
2023-02-16T02:21:31.727Z,7.60
2023-02-16T02:23:05.663Z,7.50
2023-02-16T02:24:29.145Z,1.20
2023-02-16T02:25:47.114Z,7.60
2023-02-16T02:27:11.519Z,5.60
2023-02-16T02:28:32.625Z,6.80
2023-02-16T02:29:42.257Z,8.20
2023-02-16T02:30:52.089Z,7.70
2023-02-16T02:32:01.688Z,7.90
2023-02-16T02:33:24.641Z,7.20
2023-02-16T02:34:36.355Z,10.00
2023-02-16T02:35:57.282Z,10.50
2023-02-16T02:37:10.539Z,10.90
2023-02-16T02:38:34.842Z,9.50
2023-02-16T02:39:46.420Z,8.90
2023-02-16T02:42:21.704Z,7.40
2023-02-16T02:43:32.236Z,8.50
2023-02-16T02:44:44.532Z,7.70
2023-02-16T02:45:53.822Z,8.40
2023-02-16T02:46:57.068Z,10.70
2023-02-16T02:47:59.558Z,6.20
2023-02-16T02:49:02.055Z,7.30
2023-02-16T02:50:24.705Z,12.40
2023-02-16T02:51:31.064Z,8.40
2023-02-16T02:52:40.917Z,8.20
2023-02-16T02:53:54.834Z,10.20
2023-02-16T02:55:15.236Z,11.70
2023-02-16T02:56:38.397Z,7.60
2023-02-16T02:58:02.899Z,11.50
2023-02-16T02:59:27.502Z,9.30
2023-02-16T03:00:49.215Z,8.40
2023-02-16T03:01:55.433Z,11.80
2023-02-16T03:03:01.669Z,9.00
2023-02-16T03:04:07.736Z,10.90
2023-02-16T03:05:14.116Z,8.10
2023-02-16T03:06:29.746Z,12.70
2023-02-16T03:07:46.884Z,13.00
2023-02-16T03:08:52.701Z,13.30
2023-02-16T03:09:56.879Z,13.10
2023-02-16T03:11:24.849Z,12.30
2023-02-16T03:12:45.416Z,11.50
2023-02-16T03:13:56.226Z,9.10
2023-02-16T03:15:01.405Z,12.60
2023-02-16T03:16:07.513Z,14.40
2023-02-16T03:17:36.819Z,12.70
2023-02-16T03:19:00.949Z,11.10
2023-02-16T03:20:25.187Z,7.10
2023-02-16T03:21:47.789Z,10.00
2023-02-16T03:23:09.463Z,12.10
2023-02-16T03:24:34.183Z,9.70
2023-02-16T03:25:57.220Z,8.20
2023-02-16T03:27:19.628Z,13.10
2023-02-16T03:28:45.738Z,9.00
2023-02-16T03:29:51.153Z,6.50
2023-02-16T03:30:55.960Z,10.90
2023-02-16T03:31:59.991Z,10.00
2023-02-16T03:33:02.702Z,15.40
2023-02-16T03:34:06.360Z,10.70
2023-02-16T03:35:11.712Z,13.20
2023-02-16T03:36:14.824Z,15.20
2023-02-16T03:37:17.165Z,20.00
2023-02-16T03:38:19.934Z,18.80
2023-02-16T03:39:22.072Z,15.90
2023-02-16T03:40:29.195Z,14.30
2023-02-16T03:41:34.175Z,19.40
2023-02-16T03:42:36.514Z,19.60
2023-02-16T03:43:38.892Z,27.20
2023-02-16T03:44:41.201Z,40.70
2023-02-16T03:45:44.752Z,35.90
2023-02-16T03:46:49.451Z,33.70
2023-02-16T03:47:52.285Z,25.60
2023-02-16T03:48:54.450Z,24.80
2023-02-16T03:49:56.957Z,24.10
2023-02-16T03:50:59.489Z,26.30
2023-02-16T03:52:01.728Z,23.50
2023-02-16T03:53:08.249Z,35.20
2023-02-16T03:54:11.218Z,22.90
2023-02-16T03:55:14.462Z,42.00
2023-02-16T03:56:17.228Z,34.80
2023-02-16T03:57:19.520Z,46.30
2023-02-16T03:58:23.731Z,28.90
2023-02-16T03:59:26.047Z,26.30
2023-02-16T04:00:28.606Z,28.10
2023-02-16T04:01:32.206Z,30.70
2023-02-16T04:02:34.394Z,29.70
2023-02-16T04:03:39.384Z,28.56
2023-02-16T04:04:41.719Z,25.40
2023-02-16T04:05:45.071Z,29.20
2023-02-16T04:06:47.468Z,29.90
2023-02-16T04:07:49.740Z,22.90
2023-02-16T04:08:54.066Z,18.10
2023-02-16T04:09:56.439Z,22.00
2023-02-16T04:10:59.771Z,33.10
2023-02-16T04:12:20.893Z,24.30
2023-02-16T04:13:23.900Z,29.20
2023-02-16T04:14:26.294Z,23.27
2023-02-16T04:15:30.977Z,22.50
2023-02-16T04:16:33.592Z,28.20
2023-02-16T04:17:36.024Z,26.70
2023-02-16T04:18:39.450Z,27.30
2023-02-16T04:19:41.657Z,33.20
2023-02-16T04:20:44.287Z,28.70
2023-02-16T04:21:46.291Z,30.50
2023-02-16T04:22:49.159Z,24.56
2023-02-16T04:23:51.446Z,30.64
2023-02-16T04:24:54.699Z,23.00
2023-02-16T04:25:56.832Z,29.90
2023-02-16T04:26:59.448Z,23.90
2023-02-16T04:28:01.443Z,25.10
2023-02-16T04:29:04.099Z,26.20
2023-02-16T04:30:08.904Z,30.91
2023-02-16T04:31:11.385Z,18.30
2023-02-16T04:32:13.939Z,18.00
2023-02-16T04:33:16.241Z,19.80
2023-02-16T04:34:18.747Z,18.90
2023-02-16T04:35:21.544Z,20.90
2023-02-16T04:36:25.531Z,19.60
2023-02-16T04:37:27.998Z,26.73
2023-02-16T04:38:30.302Z,27.50
2023-02-16T04:39:32.520Z,25.10
2023-02-16T04:40:35.571Z,28.00
2023-02-16T04:41:37.860Z,27.20
2023-02-16T04:42:41.469Z,21.30
2023-02-16T04:43:43.858Z,31.40
2023-02-16T04:44:46.078Z,28.10
2023-02-16T04:45:48.230Z,28.60
2023-02-16T04:46:50.724Z,32.90
2023-02-16T04:47:53.993Z,37.00
2023-02-16T04:48:56.058Z,49.30
2023-02-16T04:49:58.100Z,38.50
2023-02-16T04:51:03.615Z,35.40
2023-02-16T04:52:07.090Z,33.20
2023-02-16T04:53:09.147Z,37.50
2023-02-16T04:54:11.329Z,32.60
2023-02-16T04:55:13.564Z,28.10
2023-02-16T04:56:16.827Z,25.60
2023-02-16T04:57:21.802Z,23.70
2023-02-16T04:58:24.091Z,22.50
2023-02-16T04:59:26.538Z,19.00
2023-02-16T05:00:28.694Z,15.90
2023-02-16T05:01:30.915Z,26.90
2023-02-16T05:02:33.509Z,26.90
2023-02-16T05:03:35.523Z,15.20
2023-02-16T05:04:38.350Z,20.90
2023-02-16T05:05:42.588Z,26.00
2023-02-16T05:06:45.154Z,27.50
2023-02-16T05:07:47.509Z,17.40
2023-02-16T05:08:49.590Z,22.20
2023-02-16T05:09:51.818Z,22.40
2023-02-16T05:11:12.550Z,24.00
2023-02-16T05:12:33.010Z,18.60
2023-02-16T05:13:54.054Z,21.70
2023-02-16T05:14:56.721Z,18.20
2023-02-16T05:15:59.633Z,16.10
2023-02-16T05:17:01.974Z,11.10
2023-02-16T05:18:04.476Z,11.50
2023-02-16T05:19:06.735Z,15.90
2023-02-16T05:20:11.259Z,15.40
2023-02-16T05:21:31.778Z,11.00
2023-02-16T05:22:36.052Z,11.50
2023-02-16T05:23:38.528Z,11.10
2023-02-16T05:24:41.596Z,12.40
2023-02-16T05:25:43.829Z,14.40
2023-02-16T05:26:46.343Z,19.20
2023-02-16T05:27:48.972Z,21.70
2023-02-16T05:28:51.232Z,16.40
2023-02-16T05:29:53.560Z,18.70
2023-02-16T05:30:55.841Z,18.70
2023-02-16T05:31:58.856Z,21.10
2023-02-16T05:33:01.458Z,19.60
2023-02-16T05:34:03.703Z,20.40
2023-02-16T05:35:05.977Z,18.40
2023-02-16T05:36:09.530Z,14.80
2023-02-16T05:37:16.437Z,17.50
2023-02-16T05:38:20.488Z,11.50
2023-02-16T05:39:23.452Z,11.10
2023-02-16T05:40:25.948Z,11.82
2023-02-16T05:41:28.772Z,10.30
2023-02-16T05:42:31.508Z,12.64
2023-02-16T05:43:33.518Z,10.70
2023-02-16T05:44:37.061Z,13.30
2023-02-16T05:45:39.384Z,13.40
2023-02-16T05:46:41.977Z,13.10
2023-02-16T05:47:47.051Z,10.80
2023-02-16T05:48:50.240Z,19.30
2023-02-16T05:49:52.525Z,12.20
2023-02-16T05:50:55.445Z,16.50
2023-02-16T05:51:58.310Z,16.70
2023-02-16T05:53:00.479Z,8.30
2023-02-16T05:54:03.419Z,14.30
2023-02-16T05:55:05.936Z,18.00
2023-02-16T05:56:08.924Z,10.70
2023-02-16T05:57:11.118Z,12.90
2023-02-16T05:58:13.037Z,16.10
2023-02-16T05:59:15.726Z,17.80
2023-02-16T06:00:20.413Z,17.80
2023-02-16T06:01:22.748Z,19.30
2023-02-16T06:02:25.209Z,22.80
2023-02-16T06:03:27.726Z,18.20
2023-02-16T06:04:32.823Z,23.20
2023-02-16T06:05:34.828Z,15.00
2023-02-16T06:06:38.965Z,26.80
2023-02-16T06:07:41.047Z,19.50
2023-02-16T06:08:43.612Z,20.89
2023-02-16T06:09:45.611Z,13.90
2023-02-16T06:10:53.277Z,19.70
2023-02-16T06:11:55.753Z,20.90
2023-02-16T06:12:58.199Z,20.40
2023-02-16T06:14:02.055Z,20.20
2023-02-16T06:15:04.683Z,17.70
2023-02-16T06:16:07.469Z,16.64
2023-02-16T06:17:09.613Z,18.40
2023-02-16T06:18:12.187Z,21.00
2023-02-16T06:19:17.516Z,20.40
2023-02-16T06:20:20.689Z,21.00
2023-02-16T06:21:24.296Z,23.30
2023-02-16T06:22:26.886Z,17.90
2023-02-16T06:23:29.116Z,24.00
2023-02-16T06:24:32.348Z,23.80
2023-02-16T06:25:35.425Z,22.90
2023-02-16T06:26:38.928Z,21.70
2023-02-16T06:27:40.988Z,20.80
2023-02-16T06:28:43.483Z,19.20
2023-02-16T06:29:46.188Z,18.30
2023-02-16T06:30:49.391Z,21.91
2023-02-16T06:31:52.380Z,25.60
2023-02-16T06:32:55.759Z,28.20
2023-02-16T06:33:58.470Z,23.60
2023-02-16T06:35:00.620Z,20.50
2023-02-16T06:36:03.404Z,7.60
2023-02-16T06:37:06.647Z,26.50
2023-02-16T06:38:09.246Z,21.00
2023-02-16T06:39:12.205Z,34.70
2023-02-16T06:40:16.912Z,28.80
2023-02-16T06:41:33.634Z,34.70
2023-02-16T06:42:44.020Z,35.40
2023-02-16T06:43:46.682Z,16.30
2023-02-16T06:44:48.736Z,27.60
2023-02-16T06:45:51.150Z,24.30
2023-02-16T06:46:53.623Z,19.90
2023-02-16T06:47:55.817Z,24.60
2023-02-16T06:48:58.727Z,21.10
2023-02-16T06:50:01.474Z,18.73
2023-02-16T06:51:04.945Z,21.64
2023-02-16T06:52:08.907Z,22.50
2023-02-16T06:53:12.387Z,11.80
2023-02-16T06:54:15.979Z,32.30
2023-02-16T06:55:19.565Z,24.00
2023-02-16T06:56:23.152Z,18.20
2023-02-16T06:57:25.422Z,25.30
2023-02-16T06:58:27.503Z,22.20
2023-02-16T06:59:30.302Z,19.00
2023-02-16T07:00:33.552Z,21.20
2023-02-16T07:01:36.817Z,25.80
2023-02-16T07:02:39.019Z,27.70
2023-02-16T07:03:41.314Z,32.60
2023-02-16T07:04:43.596Z,28.40
2023-02-16T07:05:47.478Z,38.50
2023-02-16T07:06:49.966Z,29.00
2023-02-16T07:07:53.653Z,26.60
2023-02-16T07:08:59.639Z,18.50
2023-02-16T07:10:02.327Z,30.40
2023-02-16T07:11:05.134Z,17.50
2023-02-16T07:12:07.601Z,24.09
2023-02-16T07:13:09.819Z,23.00
2023-02-16T07:14:12.404Z,20.50
2023-02-16T07:15:15.034Z,24.40
2023-02-16T07:16:17.914Z,20.40
2023-02-16T07:17:20.841Z,25.70
2023-02-16T07:18:23.074Z,25.40
2023-02-16T07:19:25.617Z,24.40
2023-02-16T07:20:29.416Z,22.60
2023-02-16T07:21:31.604Z,17.70
2023-02-16T07:22:35.221Z,22.70
2023-02-16T07:23:37.556Z,20.90
2023-02-16T07:24:39.824Z,14.10
2023-02-16T07:25:42.092Z,19.30
2023-02-16T07:26:44.279Z,20.50
2023-02-16T07:27:46.631Z,20.56
2023-02-16T07:28:48.664Z,24.20
2023-02-16T07:29:50.961Z,26.40
2023-02-16T07:30:54.005Z,28.90
2023-02-16T07:31:57.122Z,39.27
2023-02-16T07:32:59.557Z,36.40
2023-02-16T07:34:02.183Z,29.20
2023-02-16T07:35:05.133Z,33.40
2023-02-16T07:36:09.600Z,27.30
2023-02-16T07:37:11.971Z,21.60
2023-02-16T07:38:14.496Z,33.00
2023-02-16T07:39:16.789Z,32.00
2023-02-16T07:40:19.645Z,32.20
2023-02-16T07:41:21.933Z,26.70
2023-02-16T07:42:24.025Z,27.60
2023-02-16T07:43:27.714Z,27.20
2023-02-16T07:44:29.668Z,21.90
2023-02-16T07:45:33.381Z,22.00
2023-02-16T07:46:35.848Z,24.70
2023-02-16T07:47:38.036Z,26.90
2023-02-16T07:48:41.454Z,28.22
2023-02-16T07:49:48.577Z,25.70
2023-02-16T07:50:50.874Z,29.00
2023-02-16T07:51:56.576Z,21.67
2023-02-16T07:53:01.991Z,28.60
2023-02-16T07:54:05.006Z,20.20
2023-02-16T07:55:07.794Z,20.73
2023-02-16T07:56:19.713Z,20.90
2023-02-16T07:57:22.158Z,21.30
2023-02-16T07:58:27.096Z,25.20
2023-02-16T07:59:29.697Z,7.60
2023-02-16T08:00:32.218Z,21.80
2023-02-16T08:01:35.298Z,18.50
2023-02-16T08:02:37.861Z,27.10
2023-02-16T08:03:41.185Z,24.30
2023-02-16T08:04:44.616Z,22.90
2023-02-16T08:05:46.913Z,18.60
2023-02-16T08:06:50.361Z,22.00
2023-02-16T08:07:52.829Z,20.80
2023-02-16T08:08:55.089Z,26.80
2023-02-16T08:09:57.490Z,26.30
2023-02-16T08:11:00.983Z,27.60
2023-02-16T08:12:03.398Z,19.90
2023-02-16T08:13:05.936Z,24.00
2023-02-16T08:14:09.633Z,21.91
2023-02-16T08:15:12.512Z,24.70
2023-02-16T08:16:25.423Z,22.90
2023-02-16T08:17:27.913Z,24.60
2023-02-16T08:18:31.150Z,18.80
2023-02-16T08:19:34.344Z,28.00
2023-02-16T08:21:01.141Z,29.10
2023-02-16T08:21:44.866Z,28.90
2023-02-16T08:22:47.470Z,29.30
2023-02-16T08:23:56.815Z,27.00
2023-02-16T08:24:59.834Z,24.00
2023-02-16T08:26:09.311Z,22.80
2023-02-16T08:27:11.394Z,23.40
2023-02-16T08:28:14.513Z,27.80
2023-02-16T08:29:20.115Z,24.80
2023-02-16T08:30:24.914Z,22.80
2023-02-16T08:31:29.984Z,32.70
2023-02-16T08:32:32.897Z,27.40
2023-02-16T08:33:35.909Z,28.82
2023-02-16T08:34:38.422Z,26.91
2023-02-16T08:35:40.684Z,28.60
2023-02-16T08:36:50.594Z,20.70
2023-02-16T08:37:53.058Z,23.30
2023-02-16T08:38:56.572Z,27.10
2023-02-16T08:40:01.486Z,24.20
2023-02-16T08:41:03.854Z,27.40
2023-02-16T08:42:07.323Z,25.70
2023-02-16T08:43:09.599Z,24.10
2023-02-16T08:44:14.919Z,27.30
2023-02-16T08:45:18.064Z,25.20
2023-02-16T08:46:22.539Z,27.70
2023-02-16T08:47:26.382Z,20.10
2023-02-16T08:48:30.382Z,17.90
2023-02-16T08:49:33.080Z,23.70
2023-02-16T08:50:39.144Z,21.73
2023-02-16T08:51:44.758Z,22.50
2023-02-16T08:52:49.902Z,19.70
2023-02-16T08:53:54.668Z,21.00
2023-02-16T08:54:56.844Z,23.70
2023-02-16T08:56:02.621Z,18.50
2023-02-16T08:57:12.998Z,20.40
2023-02-16T08:58:11.606Z,20.80
2023-02-16T08:59:19.824Z,20.30
2023-02-16T09:00:34.550Z,28.80
2023-02-16T09:01:37.581Z,17.00
2023-02-16T09:02:40.118Z,21.90
2023-02-16T09:03:44.278Z,24.60
2023-02-16T09:04:48.740Z,26.40
2023-02-16T09:05:52.479Z,20.10
2023-02-16T09:06:57.461Z,20.90
2023-02-16T09:08:00.385Z,23.40
2023-02-16T09:09:04.392Z,25.64
2023-02-16T09:10:07.449Z,29.00
2023-02-16T09:11:16.476Z,21.09
2023-02-16T09:12:18.651Z,22.60
2023-02-16T09:13:21.989Z,26.50
2023-02-16T09:14:24.400Z,25.40
2023-02-16T09:15:26.792Z,26.50
2023-02-16T09:16:32.201Z,27.27
2023-02-16T09:17:35.620Z,19.30
2023-02-16T09:18:39.371Z,18.70
2023-02-16T09:19:43.022Z,22.30
2023-02-16T09:20:47.198Z,24.90
2023-02-16T09:21:54.422Z,24.40
2023-02-16T09:22:57.808Z,26.10
2023-02-16T09:24:03.559Z,26.00
2023-02-16T09:25:06.976Z,34.70
2023-02-16T09:26:10.659Z,23.80
2023-02-16T09:27:13.194Z,26.90
2023-02-16T09:28:15.548Z,33.40
2023-02-16T09:29:18.591Z,27.40
2023-02-16T09:30:21.548Z,26.70
2023-02-16T09:31:28.171Z,27.70
2023-02-16T09:32:30.574Z,25.60
2023-02-16T09:33:35.005Z,26.30
2023-02-16T09:34:39.964Z,28.50
2023-02-16T09:35:42.669Z,32.70
2023-02-16T09:36:45.096Z,28.80
2023-02-16T09:37:49.330Z,22.50
2023-02-16T09:38:53.621Z,30.70
2023-02-16T09:39:56.428Z,34.50
2023-02-16T09:41:00.334Z,29.64
2023-02-16T09:42:21.524Z,28.60
2023-02-16T09:43:31.295Z,29.10
2023-02-16T09:45:56.355Z,28.20
2023-02-16T09:47:03.287Z,30.90
2023-02-16T09:48:06.129Z,31.20
2023-02-16T09:49:11.999Z,34.18
2023-02-16T09:50:38.185Z,33.70
2023-02-16T09:51:34.317Z,32.80
2023-02-16T09:52:40.142Z,27.90
2023-02-16T09:53:45.293Z,40.70
2023-02-16T09:56:22.274Z,32.70
2023-02-16T09:57:56.344Z,37.20
2023-02-16T10:00:51.743Z,33.50
2023-02-16T10:02:16.278Z,25.30
2023-02-16T10:03:46.724Z,31.00
2023-02-16T10:05:09.246Z,26.20
2023-02-16T10:06:36.896Z,31.40
2023-02-16T10:07:46.699Z,24.90
2023-02-16T10:08:53.423Z,31.30
2023-02-16T10:09:58.596Z,23.60
2023-02-16T10:11:05.364Z,28.60
2023-02-16T10:12:11.547Z,31.20
2023-02-16T10:13:26.996Z,25.10
2023-02-16T10:14:41.778Z,28.00
2023-02-16T10:15:46.301Z,25.10
2023-02-16T10:16:56.887Z,26.40
2023-02-16T10:18:10.356Z,20.90
2023-02-16T10:19:22.515Z,28.30
2023-02-16T10:20:29.625Z,31.40
2023-02-16T10:21:32.320Z,25.30
2023-02-16T10:22:44.172Z,31.60
2023-02-16T10:24:01.653Z,28.10
2023-02-16T10:25:16.604Z,29.90
2023-02-16T10:27:15.870Z,25.30
2023-02-16T10:28:59.744Z,23.60
2023-02-16T10:30:02.364Z,18.90
2023-02-16T10:32:28.626Z,28.40
2023-02-16T10:33:47.051Z,27.80
2023-02-16T10:36:17.726Z,27.20
2023-02-16T10:37:49.448Z,28.40
2023-02-16T10:38:58.455Z,28.20
2023-02-16T10:40:08.924Z,33.00
2023-02-16T10:41:29.305Z,29.40
2023-02-16T10:42:39.196Z,20.80
2023-02-16T10:44:02.540Z,37.50
2023-02-16T10:45:17.756Z,19.30
2023-02-16T10:46:24.404Z,25.70
2023-02-16T10:48:22.483Z,27.60
2023-02-16T10:49:50.363Z,22.70
2023-02-16T10:51:05.646Z,25.40
2023-02-16T10:52:09.665Z,27.20
2023-02-16T10:53:21.678Z,28.20
2023-02-16T10:54:30.772Z,37.10
2023-02-16T10:55:32.823Z,32.30
2023-02-16T10:56:54.152Z,27.50
2023-02-16T10:57:59.873Z,30.60
2023-02-16T10:59:08.814Z,31.00
2023-02-16T11:00:16.002Z,32.50
2023-02-16T11:02:50.769Z,24.50
2023-02-16T11:03:54.833Z,26.10
2023-02-16T11:04:58.503Z,24.00
2023-02-16T11:06:13.545Z,26.50
2023-02-16T11:07:19.809Z,27.80
2023-02-16T11:08:33.435Z,20.70
2023-02-16T11:09:37.220Z,19.80
2023-02-16T11:10:48.867Z,26.10
2023-02-16T11:11:51.121Z,19.40
2023-02-16T11:12:59.549Z,27.00
2023-02-16T11:14:09.253Z,27.10
2023-02-16T11:15:19.235Z,27.70
2023-02-16T11:16:24.483Z,29.70
2023-02-16T11:17:27.196Z,20.30
2023-02-16T11:18:39.227Z,28.27
2023-02-16T11:19:54.515Z,29.40
2023-02-16T11:20:59.227Z,24.40
2023-02-16T11:22:01.930Z,10.70
2023-02-16T11:23:30.760Z,24.10
2023-02-16T11:24:36.729Z,21.00
2023-02-16T11:25:39.385Z,25.80
2023-02-16T11:26:42.696Z,22.40
2023-02-16T11:27:56.589Z,19.40
2023-02-16T11:29:08.759Z,20.30
2023-02-16T11:30:22.890Z,24.30
2023-02-16T11:31:37.676Z,19.10
2023-02-16T11:32:40.229Z,21.30
2023-02-16T11:33:47.905Z,21.70
2023-02-16T11:34:52.899Z,28.20
2023-02-16T11:35:56.227Z,18.80
2023-02-16T11:38:34.223Z,24.80
2023-02-16T11:39:47.768Z,19.60
2023-02-16T11:42:34.585Z,23.30
2023-02-16T11:43:40.938Z,23.10
2023-02-16T11:44:46.388Z,31.50
2023-02-16T11:46:14.067Z,23.30
2023-02-16T11:47:23.985Z,23.60
2023-02-16T11:48:29.586Z,28.20
2023-02-16T11:49:41.177Z,6.00
2023-02-16T11:51:05.649Z,25.10
2023-02-16T11:52:27.203Z,22.30
2023-02-16T11:53:32.881Z,22.40
2023-02-16T11:54:35.564Z,25.80
2023-02-16T11:55:47.550Z,19.60
2023-02-16T11:57:10.801Z,19.80
2023-02-16T11:58:20.825Z,23.70
2023-02-16T11:59:25.366Z,16.80
2023-02-16T12:00:29.514Z,17.30
2023-02-16T12:01:51.604Z,19.40
2023-02-16T12:03:09.696Z,21.10
2023-02-16T12:04:33.139Z,18.20
2023-02-16T12:05:59.829Z,21.10
2023-02-16T12:07:16.110Z,19.80
2023-02-16T12:08:38.826Z,32.90
2023-02-16T12:09:51.164Z,31.90
2023-02-16T12:11:12.806Z,29.90
2023-02-16T12:12:21.481Z,22.40
2023-02-16T12:13:37.169Z,31.50
2023-02-16T12:16:46.919Z,20.30
2023-02-16T12:18:29.666Z,15.20
2023-02-16T12:19:35.529Z,13.00
2023-02-16T12:20:51.189Z,21.50
2023-02-16T12:22:03.933Z,16.90
2023-02-16T12:23:30.426Z,20.30
2023-02-16T12:24:59.668Z,27.30
2023-02-16T12:26:26.554Z,23.30
2023-02-16T12:27:35.101Z,20.00
2023-02-16T12:28:56.050Z,23.10
2023-02-16T12:30:06.830Z,20.30
2023-02-16T12:31:25.527Z,20.50
2023-02-16T12:32:43.931Z,20.40
2023-02-16T12:33:50.262Z,10.70
2023-02-16T12:34:56.441Z,21.80
2023-02-16T12:36:31.227Z,16.50
2023-02-16T12:37:42.903Z,19.10
2023-02-16T12:39:04.159Z,22.60
2023-02-16T12:40:23.817Z,24.60
2023-02-16T12:41:54.204Z,25.40
2023-02-16T12:44:34.088Z,17.00
2023-02-16T12:45:39.818Z,13.00
2023-02-16T12:46:50.112Z,13.70
2023-02-16T12:47:58.523Z,17.50
2023-02-16T12:49:27.437Z,17.20
2023-02-16T12:51:27.654Z,26.70
2023-02-16T12:52:55.711Z,13.10
2023-02-16T12:54:26.216Z,23.20
2023-02-16T12:55:41.340Z,29.30
2023-02-16T12:56:51.050Z,27.10
2023-02-16T12:57:59.555Z,25.70
2023-02-16T12:59:05.364Z,22.10
2023-02-16T13:00:18.221Z,19.30
2023-02-16T13:01:24.744Z,18.50
2023-02-16T13:02:39.963Z,21.50
2023-02-16T13:03:45.915Z,17.70
2023-02-16T13:05:12.722Z,20.50
2023-02-16T13:06:33.166Z,24.00
2023-02-16T13:07:39.286Z,16.00
2023-02-16T13:09:18.490Z,15.40
2023-02-16T13:10:25.417Z,15.90
2023-02-16T13:11:38.673Z,19.50
2023-02-16T13:12:54.958Z,20.20
2023-02-16T13:14:01.255Z,16.30
2023-02-16T13:15:17.446Z,18.70
2023-02-16T13:16:31.080Z,17.10
2023-02-16T13:17:43.668Z,15.30
2023-02-16T13:18:48.935Z,10.90
2023-02-16T13:19:54.198Z,21.10
2023-02-16T13:21:02.653Z,20.50
2023-02-16T13:22:43.759Z,18.10
2023-02-16T13:23:55.711Z,15.70
2023-02-16T13:25:20.916Z,18.00
2023-02-16T13:26:55.812Z,15.50
2023-02-16T13:28:02.239Z,19.20
2023-02-16T13:29:29.518Z,21.40
2023-02-16T13:30:47.000Z,20.80
2023-02-16T13:32:04.262Z,16.20
2023-02-16T13:33:35.152Z,16.70
2023-02-16T13:34:57.223Z,17.50
2023-02-16T13:36:19.110Z,16.70
2023-02-16T13:37:28.093Z,15.10
2023-02-16T13:38:33.922Z,17.80
2023-02-16T13:40:04.273Z,20.40
2023-02-16T13:41:30.798Z,17.50
2023-02-16T13:42:47.494Z,14.70
2023-02-16T13:44:02.555Z,23.30
2023-02-16T13:45:17.935Z,16.30
2023-02-16T13:46:30.468Z,20.20
2023-02-16T13:47:36.428Z,16.70
2023-02-16T13:48:49.405Z,18.40
2023-02-16T13:50:00.936Z,15.30
2023-02-16T13:51:08.278Z,17.70
2023-02-16T13:52:30.970Z,17.50
2023-02-16T13:53:39.708Z,25.60
2023-02-16T13:54:44.890Z,20.50
2023-02-16T13:55:50.100Z,19.30
2023-02-16T13:57:00.122Z,21.90
2023-02-16T13:58:05.933Z,20.10
2023-02-16T13:59:21.753Z,17.10
2023-02-16T14:00:41.686Z,23.20
2023-02-16T14:02:03.600Z,19.20
2023-02-16T14:03:20.950Z,22.80
2023-02-16T14:04:27.792Z,18.70
2023-02-16T14:05:36.082Z,19.90
2023-02-16T14:06:42.241Z,17.80
2023-02-16T14:07:45.372Z,16.50
2023-02-16T14:08:54.127Z,14.91
2023-02-16T14:09:57.520Z,22.80
2023-02-16T14:11:03.608Z,15.60
2023-02-16T14:12:13.799Z,14.50
2023-02-16T14:13:16.771Z,23.20
2023-02-16T14:14:29.472Z,20.40
2023-02-16T14:15:32.566Z,20.40
2023-02-16T14:16:35.140Z,18.10
2023-02-16T14:17:38.180Z,18.00
2023-02-16T14:19:20.790Z,21.90
2023-02-16T14:20:27.476Z,21.60
2023-02-16T14:21:44.896Z,24.20
2023-02-16T14:22:55.531Z,18.90
2023-02-16T14:24:00.610Z,19.90
2023-02-16T14:25:21.856Z,14.60
2023-02-16T14:26:27.519Z,15.80
2023-02-16T14:27:48.159Z,21.50
2023-02-16T14:28:54.849Z,18.60
2023-02-16T14:30:00.994Z,15.40
2023-02-16T14:31:12.886Z,20.90
2023-02-16T14:32:32.899Z,16.90
2023-02-16T14:33:42.477Z,12.40
2023-02-16T14:35:00.196Z,20.30
2023-02-16T14:36:11.165Z,15.30
2023-02-16T14:37:21.324Z,15.80
2023-02-16T14:38:33.506Z,17.50
2023-02-16T14:39:53.293Z,12.40
2023-02-16T14:40:48.897Z,15.20
2023-02-16T14:41:51.910Z,17.90
2023-02-16T14:43:00.383Z,19.36
2023-02-16T14:44:09.258Z,14.20
2023-02-16T14:45:30.653Z,22.00
2023-02-16T14:47:00.884Z,18.20
2023-02-16T14:48:41.845Z,8.70
2023-02-16T14:50:14.476Z,11.80
2023-02-16T14:51:43.474Z,18.30
2023-02-16T14:52:58.144Z,18.70
2023-02-16T14:54:21.940Z,15.40
2023-02-16T14:55:39.466Z,19.80
2023-02-16T14:56:55.521Z,16.70
2023-02-16T14:58:35.265Z,14.00
2023-02-16T14:59:44.362Z,17.40
2023-02-16T15:00:56.218Z,19.70
2023-02-16T15:02:00.095Z,18.70
2023-02-16T15:03:07.554Z,23.40
2023-02-16T15:04:12.761Z,16.70
2023-02-16T15:05:18.743Z,17.20
2023-02-16T15:06:29.066Z,21.10
2023-02-16T15:07:34.306Z,16.50
2023-02-16T15:08:39.499Z,21.40
2023-02-16T15:09:42.659Z,16.40